sensor_id;sensor_type;location;lat;lon;timestamp;pressure;altitude;pressure_sealevel;temperature;humidity
76285;BME280;65096;50.998;7.098;2022-12-29T00:00:05;99829.47;;;8.18;72.13
76285;BME280;65096;50.998;7.098;2022-12-29T00:02:32;99829.47;;;8.22;72.02
76285;BME280;65096;50.998;7.098;2022-12-29T00:04:59;99829.47;;;8.19;72.08
76285;BME280;65096;50.998;7.098;2022-12-29T00:07:25;99816.63;;;8.22;72.43
76285;BME280;65096;50.998;7.098;2022-12-29T00:09:52;99802.06;;;8.08;72.97
76285;BME280;65096;50.998;7.098;2022-12-29T00:12:19;99811.50;;;8.13;73.24
76285;BME280;65096;50.998;7.098;2022-12-29T00:14:47;99802.09;;;8.29;72.26
76285;BME280;65096;50.998;7.098;2022-12-29T00:17:31;99791.81;;;8.27;72.97
76285;BME280;65096;50.998;7.098;2022-12-29T00:19:57;99794.38;;;8.35;72.50
76285;BME280;65096;50.998;7.098;2022-12-29T00:22:41;99798.66;;;8.31;72.34
76285;BME280;65096;50.998;7.098;2022-12-29T00:25:25;99795.25;;;8.34;72.27
76285;BME280;65096;50.998;7.098;2022-12-29T00:28:10;99788.41;;;8.33;73.18
76285;BME280;65096;50.998;7.098;2022-12-29T00:30:59;99784.13;;;8.30;72.56
76285;BME280;65096;50.998;7.098;2022-12-29T00:33:44;99780.69;;;8.13;73.34
76285;BME280;65096;50.998;7.098;2022-12-29T00:36:32;99777.28;;;8.23;73.27
76285;BME280;65096;50.998;7.098;2022-12-29T00:39:03;99776.41;;;8.23;73.47
76285;BME280;65096;50.998;7.098;2022-12-29T00:41:49;99762.72;;;8.34;73.05
76285;BME280;65096;50.998;7.098;2022-12-29T00:44:33;99764.44;;;8.23;72.77
76285;BME280;65096;50.998;7.098;2022-12-29T00:47:01;99771.28;;;8.30;72.65
76285;BME280;65096;50.998;7.098;2022-12-29T00:49:30;99764.44;;;8.28;73.04
76285;BME280;65096;50.998;7.098;2022-12-29T00:51:57;99766.97;;;8.22;73.33
76285;BME280;65096;50.998;7.098;2022-12-29T00:54:24;99761.00;;;8.33;72.55
76285;BME280;65096;50.998;7.098;2022-12-29T00:56:51;99761.00;;;8.35;72.19
76285;BME280;65096;50.998;7.098;2022-12-29T00:59:18;99763.56;;;8.47;72.12
76285;BME280;65096;50.998;7.098;2022-12-29T01:01:46;99760.16;;;8.58;71.48
76285;BME280;65096;50.998;7.098;2022-12-29T01:04:14;99755.00;;;8.64;70.90
76285;BME280;65096;50.998;7.098;2022-12-29T01:06:41;99755.00;;;8.51;71.36
76285;BME280;65096;50.998;7.098;2022-12-29T01:09:08;99772.97;;;8.67;71.10
76285;BME280;65096;50.998;7.098;2022-12-29T01:11:53;99767.88;;;8.57;71.81
76285;BME280;65096;50.998;7.098;2022-12-29T01:14:20;99773.84;;;8.57;71.63
76285;BME280;65096;50.998;7.098;2022-12-29T01:16:47;99772.13;;;8.61;71.77
76285;BME280;65096;50.998;7.098;2022-12-29T01:19:17;99770.44;;;8.57;72.20
76285;BME280;65096;50.998;7.098;2022-12-29T01:21:44;99770.44;;;8.60;72.27
76285;BME280;65096;50.998;7.098;2022-12-29T01:24:10;99753.28;;;8.50;72.59
76285;BME280;65096;50.998;7.098;2022-12-29T01:26:37;99766.13;;;8.62;72.50
76285;BME280;65096;50.998;7.098;2022-12-29T01:29:04;99760.13;;;8.64;72.06
76285;BME280;65096;50.998;7.098;2022-12-29T01:31:31;99761.84;;;8.68;71.97
76285;BME280;65096;50.998;7.098;2022-12-29T01:33:57;99762.66;;;8.79;71.59
76285;BME280;65096;50.998;7.098;2022-12-29T01:36:25;99760.09;;;8.81;71.05
76285;BME280;65096;50.998;7.098;2022-12-29T01:38:52;99750.69;;;8.77;71.20
76285;BME280;65096;50.998;7.098;2022-12-29T01:41:19;99749.81;;;8.81;70.54
76285;BME280;65096;50.998;7.098;2022-12-29T01:43:47;99755.81;;;8.86;70.83
76285;BME280;65096;50.998;7.098;2022-12-29T01:46:21;99755.84;;;8.72;70.43
76285;BME280;65096;50.998;7.098;2022-12-29T01:48:53;99766.09;;;8.81;70.16
76285;BME280;65096;50.998;7.098;2022-12-29T01:51:23;99764.38;;;8.88;70.12
76285;BME280;65096;50.998;7.098;2022-12-29T01:53:55;99759.25;;;8.85;69.84
76285;BME280;65096;50.998;7.098;2022-12-29T01:56:22;99756.66;;;8.92;69.30
76285;BME280;65096;50.998;7.098;2022-12-29T01:58:54;99766.09;;;8.95;68.90
76285;BME280;65096;50.998;7.098;2022-12-29T02:01:22;99751.50;;;9.01;68.37
76285;BME280;65096;50.998;7.098;2022-12-29T02:03:50;99747.25;;;8.88;67.55
76285;BME280;65096;50.998;7.098;2022-12-29T02:06:21;99739.50;;;8.94;67.44
76285;BME280;65096;50.998;7.098;2022-12-29T02:08:50;99731.78;;;9.02;67.74
76285;BME280;65096;50.998;7.098;2022-12-29T02:11:21;99729.19;;;9.03;67.81
76285;BME280;65096;50.998;7.098;2022-12-29T02:13:49;99724.03;;;9.05;66.06
76285;BME280;65096;50.998;7.098;2022-12-29T02:16:30;99717.19;;;9.13;65.09
76285;BME280;65096;50.998;7.098;2022-12-29T02:19:16;99733.47;;;9.19;64.93
76285;BME280;65096;50.998;7.098;2022-12-29T02:22:06;99730.91;;;9.24;64.71
76285;BME280;65096;50.998;7.098;2022-12-29T02:30:55;99724.00;;;9.26;63.84
76285;BME280;65096;50.998;7.098;2022-12-29T02:33:33;99722.28;;;9.30;63.36
76285;BME280;65096;50.998;7.098;2022-12-29T02:36:12;99705.13;;;9.33;63.65
76285;BME280;65096;50.998;7.098;2022-12-29T02:38:52;99713.69;;;9.34;63.60
76285;BME280;65096;50.998;7.098;2022-12-29T02:41:26;99704.25;;;9.31;64.62
76285;BME280;65096;50.998;7.098;2022-12-29T02:44:01;99712.81;;;9.36;62.39
76285;BME280;65096;50.998;7.098;2022-12-29T02:46:34;99699.06;;;9.40;63.04
76285;BME280;65096;50.998;7.098;2022-12-29T02:49:07;99696.53;;;9.33;63.88
76285;BME280;65096;50.998;7.098;2022-12-29T02:51:40;99705.09;;;9.38;63.35
76285;BME280;65096;50.998;7.098;2022-12-29T02:54:09;99688.78;;;9.37;63.46
76285;BME280;65096;50.998;7.098;2022-12-29T02:56:53;99694.88;;;9.26;63.05
76285;BME280;65096;50.998;7.098;2022-12-29T02:59:20;99691.38;;;9.36;63.39
76285;BME280;65096;50.998;7.098;2022-12-29T03:02:05;99690.47;;;9.46;63.44
76285;BME280;65096;50.998;7.098;2022-12-29T03:04:53;99690.44;;;9.50;62.80
76285;BME280;65096;50.998;7.098;2022-12-29T03:07:26;99654.53;;;9.35;63.10
76285;BME280;65096;50.998;7.098;2022-12-29T03:10:03;99681.00;;;9.54;62.50
76285;BME280;65096;50.998;7.098;2022-12-29T03:12:37;99678.44;;;9.51;62.38
76285;BME280;65096;50.998;7.098;2022-12-29T03:15:30;99675.94;;;9.36;63.55
76285;BME280;65096;50.998;7.098;2022-12-29T03:18:21;99663.91;;;9.39;63.57
76285;BME280;65096;50.998;7.098;2022-12-29T03:20:53;99668.13;;;9.54;63.06
76285;BME280;65096;50.998;7.098;2022-12-29T03:23:21;99669.84;;;9.53;63.12
76285;BME280;65096;50.998;7.098;2022-12-29T03:25:52;99665.59;;;9.49;63.28
76285;BME280;65096;50.998;7.098;2022-12-29T03:28:23;99663.06;;;9.43;63.88
76285;BME280;65096;50.998;7.098;2022-12-29T03:30:52;99659.56;;;9.49;64.37
76285;BME280;65096;50.998;7.098;2022-12-29T03:33:21;99652.72;;;9.48;64.21
76285;BME280;65096;50.998;7.098;2022-12-29T03:35:50;99654.44;;;9.46;64.66
76285;BME280;65096;50.998;7.098;2022-12-29T03:38:21;99633.78;;;9.56;64.14
76285;BME280;65096;50.998;7.098;2022-12-29T03:40:52;99637.22;;;9.57;63.81
76285;BME280;65096;50.998;7.098;2022-12-29T03:43:20;99647.50;;;9.58;64.12
76285;BME280;65096;50.998;7.098;2022-12-29T03:45:47;99658.66;;;9.57;63.90
76285;BME280;65096;50.998;7.098;2022-12-29T03:48:14;99657.78;;;9.58;64.23
76285;BME280;65096;50.998;7.098;2022-12-29T03:50:42;99668.09;;;9.57;63.91
76285;BME280;65096;50.998;7.098;2022-12-29T03:53:09;99661.22;;;9.59;64.27
76285;BME280;65096;50.998;7.098;2022-12-29T03:55:35;99666.41;;;9.56;64.68
76285;BME280;65096;50.998;7.098;2022-12-29T03:58:02;99647.47;;;9.63;64.65
76285;BME280;65096;50.998;7.098;2022-12-29T04:00:29;99637.31;;;9.46;64.95
76285;BME280;65096;50.998;7.098;2022-12-29T04:02:55;99636.38;;;9.55;64.29
76285;BME280;65096;50.998;7.098;2022-12-29T04:05:22;99642.44;;;9.49;64.24
76285;BME280;65096;50.998;7.098;2022-12-29T04:07:50;99643.25;;;9.53;64.48
76285;BME280;65096;50.998;7.098;2022-12-29T04:10:17;99634.63;;;9.58;64.69
76285;BME280;65096;50.998;7.098;2022-12-29T04:12:43;99633.00;;;9.47;64.90
76285;BME280;65096;50.998;7.098;2022-12-29T04:15:11;99632.06;;;9.57;64.54
76285;BME280;65096;50.998;7.098;2022-12-29T04:17:38;99621.78;;;9.57;64.32
76285;BME280;65096;50.998;7.098;2022-12-29T04:20:06;99621.72;;;9.63;64.24
76285;BME280;65096;50.998;7.098;2022-12-29T04:22:46;99629.47;;;9.58;64.70
76285;BME280;65096;50.998;7.098;2022-12-29T04:25:14;99629.44;;;9.64;63.69
76285;BME280;65096;50.998;7.098;2022-12-29T04:27:41;99621.72;;;9.64;64.13
76285;BME280;65096;50.998;7.098;2022-12-29T04:30:09;99615.84;;;9.46;64.58
76285;BME280;65096;50.998;7.098;2022-12-29T04:32:36;99614.97;;;9.48;64.54
76285;BME280;65096;50.998;7.098;2022-12-29T04:35:04;99619.25;;;9.49;64.47
76285;BME280;65096;50.998;7.098;2022-12-29T04:37:31;99619.25;;;9.52;64.49
76285;BME280;65096;50.998;7.098;2022-12-29T04:39:57;99612.31;;;9.62;63.69
76285;BME280;65096;50.998;7.098;2022-12-29T04:42:25;99620.78;;;9.74;63.35
76285;BME280;65096;50.998;7.098;2022-12-29T04:44:52;99626.03;;;9.62;62.86
76285;BME280;65096;50.998;7.098;2022-12-29T04:47:18;99624.25;;;9.73;63.69
76285;BME280;65096;50.998;7.098;2022-12-29T04:49:45;99631.13;;;9.70;63.24
76285;BME280;65096;50.998;7.098;2022-12-29T04:52:12;99638.09;;;9.56;63.68
76285;BME280;65096;50.998;7.098;2022-12-29T04:54:38;99632.88;;;9.65;62.74
76285;BME280;65096;50.998;7.098;2022-12-29T04:57:06;99625.94;;;9.73;62.13
76285;BME280;65096;50.998;7.098;2022-12-29T04:59:34;99654.31;;;9.67;62.68
76285;BME280;65096;50.998;7.098;2022-12-29T05:02:00;99646.47;;;9.82;62.16
76285;BME280;65096;50.998;7.098;2022-12-29T05:04:27;99652.53;;;9.76;62.35
76285;BME280;65096;50.998;7.098;2022-12-29T05:06:54;99647.31;;;9.82;61.92
76285;BME280;65096;50.998;7.098;2022-12-29T05:09:20;99643.91;;;9.83;61.09
76285;BME280;65096;50.998;7.098;2022-12-29T05:11:51;99641.28;;;9.88;61.33
76285;BME280;65096;50.998;7.098;2022-12-29T05:14:18;99638.75;;;9.83;61.52
76285;BME280;65096;50.998;7.098;2022-12-29T05:16:46;99643.03;;;9.83;61.18
76285;BME280;65096;50.998;7.098;2022-12-29T05:19:13;99641.25;;;9.91;60.52
76285;BME280;65096;50.998;7.098;2022-12-29T05:21:39;99638.72;;;9.88;60.87
76285;BME280;65096;50.998;7.098;2022-12-29T05:24:06;99652.41;;;9.91;59.73
76285;BME280;65096;50.998;7.098;2022-12-29T05:26:33;99657.56;;;9.88;59.63
76285;BME280;65096;50.998;7.098;2022-12-29T05:29:00;99669.59;;;9.91;60.38
76285;BME280;65096;50.998;7.098;2022-12-29T05:31:27;99672.22;;;9.83;59.36
76285;BME280;65096;50.998;7.098;2022-12-29T05:33:55;99667.84;;;9.91;59.98
76285;BME280;65096;50.998;7.098;2022-12-29T05:36:22;99661.91;;;9.88;59.67
76285;BME280;65096;50.998;7.098;2022-12-29T05:38:48;99656.66;;;9.95;59.83
76285;BME280;65096;50.998;7.098;2022-12-29T05:41:15;99648.09;;;9.92;59.50
76285;BME280;65096;50.998;7.098;2022-12-29T05:43:42;99652.38;;;9.96;59.64
76285;BME280;65096;50.998;7.098;2022-12-29T05:46:08;99651.47;;;10.00;60.09
76285;BME280;65096;50.998;7.098;2022-12-29T05:48:35;99661.84;;;9.94;59.76
76285;BME280;65096;50.998;7.098;2022-12-29T05:51:03;99663.47;;;10.05;59.13
76285;BME280;65096;50.998;7.098;2022-12-29T05:53:30;99671.22;;;9.99;59.56
76285;BME280;65096;50.998;7.098;2022-12-29T05:55:57;99669.53;;;9.95;59.57
76285;BME280;65096;50.998;7.098;2022-12-29T05:58:23;99664.44;;;9.91;58.70
76285;BME280;65096;50.998;7.098;2022-12-29T06:00:50;99674.75;;;9.88;59.55
76285;BME280;65096;50.998;7.098;2022-12-29T06:03:17;99675.63;;;9.87;59.36
76285;BME280;65096;50.998;7.098;2022-12-29T06:05:44;99676.44;;;9.90;59.58
76285;BME280;65096;50.998;7.098;2022-12-29T06:08:12;99678.16;;;9.94;58.93
76285;BME280;65096;50.998;7.098;2022-12-29T06:10:39;99675.56;;;9.91;58.90
76285;BME280;65096;50.998;7.098;2022-12-29T06:13:06;99671.22;;;9.98;58.82
76285;BME280;65096;50.998;7.098;2022-12-29T06:15:33;99653.25;;;9.92;59.17
76285;BME280;65096;50.998;7.098;2022-12-29T06:18:01;99664.38;;;9.98;58.56
76285;BME280;65096;50.998;7.098;2022-12-29T06:20:28;99674.66;;;9.98;59.12
76285;BME280;65096;50.998;7.098;2022-12-29T06:22:55;99669.56;;;9.92;59.06
76285;BME280;65096;50.998;7.098;2022-12-29T06:25:23;99679.88;;;9.92;59.20
76285;BME280;65096;50.998;7.098;2022-12-29T06:27:49;99658.44;;;9.87;59.14
76285;BME280;65096;50.998;7.098;2022-12-29T06:30:16;99659.25;;;9.95;59.02
76285;BME280;65096;50.998;7.098;2022-12-29T06:32:43;99648.00;;;10.07;58.69
76285;BME280;65096;50.998;7.098;2022-12-29T06:35:11;99666.06;;;10.04;59.07
76285;BME280;65096;50.998;7.098;2022-12-29T06:37:37;99672.88;;;10.08;58.31
76285;BME280;65096;50.998;7.098;2022-12-29T06:40:05;99655.75;;;10.04;58.83
76285;BME280;65096;50.998;7.098;2022-12-29T06:42:33;99660.13;;;9.93;58.54
76285;BME280;65096;50.998;7.098;2022-12-29T06:45:00;99673.00;;;9.91;59.24
76285;BME280;65096;50.998;7.098;2022-12-29T06:47:27;99683.25;;;10.00;58.92
76285;BME280;65096;50.998;7.098;2022-12-29T06:49:53;99676.41;;;9.96;59.30
76285;BME280;65096;50.998;7.098;2022-12-29T06:52:20;99684.09;;;9.99;59.52
76285;BME280;65096;50.998;7.098;2022-12-29T06:54:49;99680.69;;;9.97;59.83
76285;BME280;65096;50.998;7.098;2022-12-29T06:57:15;99680.75;;;9.93;60.46
76285;BME280;65096;50.998;7.098;2022-12-29T06:59:44;99674.75;;;9.89;60.58
76285;BME280;65096;50.998;7.098;2022-12-29T07:02:10;99682.50;;;9.86;60.26
76285;BME280;65096;50.998;7.098;2022-12-29T07:04:39;99679.88;;;9.91;60.35
76285;BME280;65096;50.998;7.098;2022-12-29T07:07:06;99674.63;;;10.04;59.92
76285;BME280;65096;50.998;7.098;2022-12-29T07:09:32;99694.41;;;10.01;60.10
76285;BME280;65096;50.998;7.098;2022-12-29T07:11:59;99698.75;;;9.96;59.57
76285;BME280;65096;50.998;7.098;2022-12-29T07:14:26;99691.00;;;9.96;60.18
76285;BME280;65096;50.998;7.098;2022-12-29T07:16:54;99705.69;;;9.82;59.85
76285;BME280;65096;50.998;7.098;2022-12-29T07:19:21;99693.66;;;9.82;59.83
76285;BME280;65096;50.998;7.098;2022-12-29T07:21:47;99708.25;;;9.85;60.37
76285;BME280;65096;50.998;7.098;2022-12-29T07:24:14;99717.66;;;9.87;59.52
76285;BME280;65096;50.998;7.098;2022-12-29T07:26:41;99727.13;;;9.85;59.94
76285;BME280;65096;50.998;7.098;2022-12-29T07:29:07;99724.50;;;9.90;59.13
76285;BME280;65096;50.998;7.098;2022-12-29T07:31:34;99728.81;;;9.91;59.17
76285;BME280;65096;50.998;7.098;2022-12-29T07:34:02;99739.19;;;9.83;58.63
76285;BME280;65096;50.998;7.098;2022-12-29T07:36:29;99738.34;;;9.80;58.62
76285;BME280;65096;50.998;7.098;2022-12-29T07:38:55;99716.97;;;9.67;58.29
76285;BME280;65096;50.998;7.098;2022-12-29T07:41:22;99736.50;;;9.95;57.88
76285;BME280;65096;50.998;7.098;2022-12-29T07:43:49;99750.28;;;9.88;57.97
76285;BME280;65096;50.998;7.098;2022-12-29T07:46:15;99769.19;;;9.83;57.73
76285;BME280;65096;50.998;7.098;2022-12-29T07:48:42;99766.66;;;9.77;58.27
76285;BME280;65096;50.998;7.098;2022-12-29T07:51:10;99768.38;;;9.76;58.29
76285;BME280;65096;50.998;7.098;2022-12-29T07:53:37;99769.16;;;9.87;57.84
76285;BME280;65096;50.998;7.098;2022-12-29T07:56:05;99775.16;;;9.92;58.07
76285;BME280;65096;50.998;7.098;2022-12-29T07:58:31;99787.16;;;9.95;57.55
76285;BME280;65096;50.998;7.098;2022-12-29T08:00:59;99789.69;;;10.04;56.96
76285;BME280;65096;50.998;7.098;2022-12-29T08:03:25;99799.19;;;9.93;57.32
76285;BME280;65096;50.998;7.098;2022-12-29T08:05:52;99791.47;;;9.90;57.69
76285;BME280;65096;50.998;7.098;2022-12-29T08:08:20;99789.72;;;9.96;56.63
76285;BME280;65096;50.998;7.098;2022-12-29T08:10:47;99793.22;;;9.86;57.25
76285;BME280;65096;50.998;7.098;2022-12-29T08:13:14;99800.03;;;9.92;57.04
76285;BME280;65096;50.998;7.098;2022-12-29T08:15:40;99788.91;;;9.93;57.00
76285;BME280;65096;50.998;7.098;2022-12-29T08:18:07;99795.78;;;9.91;56.88
76285;BME280;65096;50.998;7.098;2022-12-29T08:20:34;99802.69;;;9.83;57.18
76285;BME280;65096;50.998;7.098;2022-12-29T08:23:01;99805.25;;;9.81;57.14
76285;BME280;65096;50.998;7.098;2022-12-29T08:25:29;99814.75;;;9.66;57.83
76285;BME280;65096;50.998;7.098;2022-12-29T08:27:55;99813.81;;;9.86;57.32
76285;BME280;65096;50.998;7.098;2022-12-29T08:30:22;99802.72;;;9.68;57.51
76285;BME280;65096;50.998;7.098;2022-12-29T08:32:49;99806.13;;;9.77;56.73
76285;BME280;65096;50.998;7.098;2022-12-29T08:35:16;99795.81;;;9.77;56.53
76285;BME280;65096;50.998;7.098;2022-12-29T08:37:42;99793.28;;;9.74;56.87
76285;BME280;65096;50.998;7.098;2022-12-29T08:40:10;99807.88;;;9.77;55.99
76285;BME280;65096;50.998;7.098;2022-12-29T08:42:38;99812.16;;;9.73;55.88
76285;BME280;65096;50.998;7.098;2022-12-29T08:45:06;99810.44;;;9.77;55.59
76285;BME280;65096;50.998;7.098;2022-12-29T08:47:33;99814.72;;;9.78;55.70
76285;BME280;65096;50.998;7.098;2022-12-29T08:50:00;99824.28;;;9.46;56.11
76285;BME280;65096;50.998;7.098;2022-12-29T08:52:27;99823.31;;;9.68;55.37
76285;BME280;65096;50.998;7.098;2022-12-29T08:54:53;99830.16;;;9.76;55.60
76285;BME280;65096;50.998;7.098;2022-12-29T08:57:20;99819.84;;;9.81;55.23
76285;BME280;65096;50.998;7.098;2022-12-29T08:59:48;99841.31;;;9.80;55.07
76285;BME280;65096;50.998;7.098;2022-12-29T09:02:15;99838.75;;;9.78;55.00
76285;BME280;65096;50.998;7.098;2022-12-29T09:04:41;99831.03;;;9.74;54.49
76285;BME280;65096;50.998;7.098;2022-12-29T09:07:08;99839.56;;;9.82;54.58
76285;BME280;65096;50.998;7.098;2022-12-29T09:09:35;99837.81;;;9.90;53.72
76285;BME280;65096;50.998;7.098;2022-12-29T09:12:02;99838.72;;;9.81;54.23
76285;BME280;65096;50.998;7.098;2022-12-29T09:14:28;99843.88;;;9.83;54.41
76285;BME280;65096;50.998;7.098;2022-12-29T09:16:56;99848.19;;;9.79;54.10
76285;BME280;65096;50.998;7.098;2022-12-29T09:19:41;99855.13;;;9.58;54.09
76285;BME280;65096;50.998;7.098;2022-12-29T09:22:07;99844.81;;;9.65;54.59
76285;BME280;65096;50.998;7.098;2022-12-29T09:24:34;99861.09;;;9.63;53.46
76285;BME280;65096;50.998;7.098;2022-12-29T09:27:01;99868.81;;;9.61;53.58
76285;BME280;65096;50.998;7.098;2022-12-29T09:29:27;99878.28;;;9.55;53.69
76285;BME280;65096;50.998;7.098;2022-12-29T09:31:54;99888.53;;;9.73;53.04
76285;BME280;65096;50.998;7.098;2022-12-29T09:34:22;99885.13;;;9.66;53.91
76285;BME280;65096;50.998;7.098;2022-12-29T09:36:49;99894.56;;;9.63;53.25
76285;BME280;65096;50.998;7.098;2022-12-29T09:39:16;99916.91;;;9.53;52.78
76285;BME280;65096;50.998;7.098;2022-12-29T09:41:47;99904.03;;;9.46;51.88
76285;BME280;65096;50.998;7.098;2022-12-29T09:44:20;99895.41;;;9.75;52.30
76285;BME280;65096;50.998;7.098;2022-12-29T09:46:51;99897.13;;;9.73;51.31
76285;BME280;65096;50.998;7.098;2022-12-29T09:49:25;99916.84;;;9.83;51.90
76285;BME280;65096;50.998;7.098;2022-12-29T09:52:03;99909.97;;;9.79;52.69
76285;BME280;65096;50.998;7.098;2022-12-29T09:54:40;99910.84;;;9.77;52.20
76285;BME280;65096;50.998;7.098;2022-12-29T09:57:20;99916.78;;;9.94;50.87
76285;BME280;65096;50.998;7.098;2022-12-29T09:59:50;99915.94;;;9.86;51.03
76285;BME280;65096;50.998;7.098;2022-12-29T10:02:32;99925.38;;;9.90;50.79
76285;BME280;65096;50.998;7.098;2022-12-29T10:05:00;99922.78;;;9.99;50.60
76285;BME280;65096;50.998;7.098;2022-12-29T10:07:37;99911.63;;;9.94;50.81
76285;BME280;65096;50.998;7.098;2022-12-29T10:10:22;99903.91;;;9.92;50.44
76285;BME280;65096;50.998;7.098;2022-12-29T10:13:04;99903.09;;;9.84;49.73
76285;BME280;65096;50.998;7.098;2022-12-29T10:15:41;99903.94;;;9.88;50.00
76285;BME280;65096;50.998;7.098;2022-12-29T10:18:22;99910.75;;;10.04;50.48
76285;BME280;65096;50.998;7.098;2022-12-29T10:21:02;99914.16;;;10.09;50.00
76285;BME280;65096;50.998;7.098;2022-12-29T10:23:39;99898.69;;;10.10;49.72
76285;BME280;65096;50.998;7.098;2022-12-29T10:26:12;99896.09;;;10.15;49.85
76285;BME280;65096;50.998;7.098;2022-12-29T10:28:43;99900.34;;;10.22;50.07
76285;BME280;65096;50.998;7.098;2022-12-29T10:31:16;99889.19;;;10.21;48.97
76285;BME280;65096;50.998;7.098;2022-12-29T10:33:46;99902.94;;;10.17;50.39
76285;BME280;65096;50.998;7.098;2022-12-29T10:36:19;99899.44;;;10.29;49.64
76285;BME280;65096;50.998;7.098;2022-12-29T10:38:57;99909.81;;;10.21;49.24
76285;BME280;65096;50.998;7.098;2022-12-29T10:41:35;99903.75;;;10.34;49.00
76285;BME280;65096;50.998;7.098;2022-12-29T10:44:03;99908.91;;;10.36;48.92
76285;BME280;65096;50.998;7.098;2022-12-29T10:46:34;99914.91;;;10.29;48.29
76285;BME280;65096;50.998;7.098;2022-12-29T10:49:01;99920.06;;;10.27;48.55
76285;BME280;65096;50.998;7.098;2022-12-29T10:51:32;99913.22;;;10.19;47.80
76285;BME280;65096;50.998;7.098;2022-12-29T10:54:06;99914.97;;;10.17;48.09
76285;BME280;65096;50.998;7.098;2022-12-29T10:56:40;99913.25;;;10.14;49.00
76285;BME280;65096;50.998;7.098;2022-12-29T10:59:14;99931.31;;;10.11;48.57
76285;BME280;65096;50.998;7.098;2022-12-29T11:01:52;99926.16;;;10.11;48.34
76285;BME280;65096;50.998;7.098;2022-12-29T11:04:38;99929.53;;;10.21;48.59
76285;BME280;65096;50.998;7.098;2022-12-29T11:07:10;99923.59;;;10.11;48.39
76285;BME280;65096;50.998;7.098;2022-12-29T11:09:39;99927.00;;;10.13;49.05
76285;BME280;65096;50.998;7.098;2022-12-29T11:12:23;99928.78;;;9.96;48.79
76285;BME280;65096;50.998;7.098;2022-12-29T11:15:13;99933.03;;;10.08;49.42
76285;BME280;65096;50.998;7.098;2022-12-29T11:17:43;99924.50;;;9.97;49.49
76285;BME280;65096;50.998;7.098;2022-12-29T11:20:32;99921.88;;;10.04;49.44
76285;BME280;65096;50.998;7.098;2022-12-29T11:23:02;99924.53;;;9.89;49.60
76285;BME280;65096;50.998;7.098;2022-12-29T11:25:29;99926.13;;;10.14;49.57
76285;BME280;65096;50.998;7.098;2022-12-29T11:27:58;99919.31;;;10.04;49.71
76285;BME280;65096;50.998;7.098;2022-12-29T11:30:27;99946.81;;;9.98;49.69
76285;BME280;65096;50.998;7.098;2022-12-29T11:32:55;99937.38;;;9.98;48.93
76285;BME280;65096;50.998;7.098;2022-12-29T11:35:31;99921.03;;;10.04;48.86
76285;BME280;65096;50.998;7.098;2022-12-29T11:37:58;99949.34;;;10.11;49.40
76285;BME280;65096;50.998;7.098;2022-12-29T11:40:28;99940.78;;;10.03;49.47
76285;BME280;65096;50.998;7.098;2022-12-29T11:42:56;99951.88;;;10.19;48.76
76285;BME280;65096;50.998;7.098;2022-12-29T11:45:25;99948.47;;;10.11;49.57
76285;BME280;65096;50.998;7.098;2022-12-29T11:47:56;99945.06;;;10.04;49.43
76285;BME280;65096;50.998;7.098;2022-12-29T11:50:26;99951.06;;;10.08;49.34
76285;BME280;65096;50.998;7.098;2022-12-29T11:52:59;99959.59;;;10.20;48.60
76285;BME280;65096;50.998;7.098;2022-12-29T11:55:28;99951.94;;;9.99;49.52
76285;BME280;65096;50.998;7.098;2022-12-29T11:57:57;99968.31;;;9.88;49.76
76285;BME280;65096;50.998;7.098;2022-12-29T12:00:27;99977.69;;;10.05;49.81
76285;BME280;65096;50.998;7.098;2022-12-29T12:02:58;99981.13;;;10.01;49.49
76285;BME280;65096;50.998;7.098;2022-12-29T12:05:33;99976.88;;;9.88;49.72
76285;BME280;65096;50.998;7.098;2022-12-29T12:08:09;99976.00;;;9.95;48.86
76285;BME280;65096;50.998;7.098;2022-12-29T12:10:44;99964.00;;;9.96;49.17
76285;BME280;65096;50.998;7.098;2022-12-29T12:13:18;99974.22;;;10.11;48.57
76285;BME280;65096;50.998;7.098;2022-12-29T12:15:50;99991.44;;;10.04;48.99
76285;BME280;65096;50.998;7.098;2022-12-29T12:18:28;99972.56;;;9.96;49.18
76285;BME280;65096;50.998;7.098;2022-12-29T12:20:59;99970.03;;;9.83;49.76
76285;BME280;65096;50.998;7.098;2022-12-29T12:23:40;99977.69;;;10.07;48.65
76285;BME280;65096;50.998;7.098;2022-12-29T12:26:15;99978.56;;;10.10;48.58
76285;BME280;65096;50.998;7.098;2022-12-29T12:28:49;99975.97;;;10.10;48.99
76285;BME280;65096;50.998;7.098;2022-12-29T12:31:39;99970.88;;;9.92;49.76
76285;BME280;65096;50.998;7.098;2022-12-29T12:34:15;100001.78;;;9.89;49.75
76285;BME280;65096;50.998;7.098;2022-12-29T12:37:02;100001.78;;;9.92;49.54
76285;BME280;65096;50.998;7.098;2022-12-29T12:39:40;99991.47;;;9.94;49.21
76285;BME280;65096;50.998;7.098;2022-12-29T12:42:24;100000.91;;;9.90;49.65
76285;BME280;65096;50.998;7.098;2022-12-29T12:45:04;99998.31;;;9.98;49.34
76285;BME280;65096;50.998;7.098;2022-12-29T12:47:53;100009.53;;;9.76;50.14
76285;BME280;65096;50.998;7.098;2022-12-29T12:50:32;100003.47;;;10.04;49.92
76285;BME280;65096;50.998;7.098;2022-12-29T12:53:24;100001.75;;;10.09;49.79
76285;BME280;65096;50.998;7.098;2022-12-29T12:58:55;100006.03;;;10.05;50.18
76285;BME280;65096;50.998;7.098;2022-12-29T13:01:37;99990.59;;;10.02;49.93
76285;BME280;65096;50.998;7.098;2022-12-29T13:04:30;100006.00;;;10.17;49.83
76285;BME280;65096;50.998;7.098;2022-12-29T13:07:09;100006.88;;;10.10;50.23
76285;BME280;65096;50.998;7.098;2022-12-29T13:10:02;100017.19;;;10.10;49.93
76285;BME280;65096;50.998;7.098;2022-12-29T13:12:41;100023.25;;;9.82;50.17
76285;BME280;65096;50.998;7.098;2022-12-29T13:15:23;100013.81;;;9.84;50.63
76285;BME280;65096;50.998;7.098;2022-12-29T13:17:59;100011.22;;;9.89;50.70
76285;BME280;65096;50.998;7.098;2022-12-29T13:20:34;100012.94;;;9.82;50.02
76285;BME280;65096;50.998;7.098;2022-12-29T13:23:08;100000.06;;;9.82;50.25
76285;BME280;65096;50.998;7.098;2022-12-29T13:25:42;100033.53;;;9.84;50.00
76285;BME280;65096;50.998;7.098;2022-12-29T13:28:19;100014.69;;;9.73;50.53
76285;BME280;65096;50.998;7.098;2022-12-29T13:30:56;100016.41;;;9.78;50.44
76285;BME280;65096;50.998;7.098;2022-12-29T13:33:30;100006.94;;;9.80;50.45
76285;BME280;65096;50.998;7.098;2022-12-29T13:36:03;100016.41;;;9.75;49.91